createdAt,value
2019-05-05T00:02:49.059Z,63.56
2019-05-05T00:05:37.143Z,63.31
2019-05-05T00:08:05.069Z,63.62
2019-05-05T00:10:50.723Z,63.58
2019-05-05T00:13:25.247Z,63.30
2019-05-05T00:16:12.464Z,63.52
2019-05-05T00:18:40.075Z,63.99
2019-05-05T00:21:07.544Z,66.02
2019-05-05T00:23:35.097Z,67.29
2019-05-05T00:26:04.388Z,67.75
2019-05-05T00:28:32.065Z,68.76
2019-05-05T00:30:59.470Z,69.65
2019-05-05T00:33:26.902Z,70.19
2019-05-05T00:35:54.617Z,70.78
2019-05-05T00:38:22.215Z,70.65
2019-05-05T00:40:49.654Z,70.37
2019-05-05T00:43:17.122Z,69.93
2019-05-05T00:45:46.476Z,69.99
2019-05-05T00:48:24.526Z,69.44
2019-05-05T00:50:52.045Z,69.13
2019-05-05T00:53:19.472Z,69.48
2019-05-05T00:55:46.840Z,69.14
2019-05-05T00:58:14.415Z,67.56
2019-05-05T01:00:50.248Z,67.10
2019-05-05T01:03:19.875Z,67.91
2019-05-05T01:05:58.362Z,67.47
2019-05-05T01:08:27.781Z,66.58
2019-05-05T01:10:55.198Z,67.96
2019-05-05T01:13:24.559Z,68.62
2019-05-05T01:15:54.077Z,68.76
2019-05-05T01:18:21.669Z,68.49
2019-05-05T01:20:49.209Z,69.30
2019-05-05T01:23:16.766Z,68.92
2019-05-05T01:25:45.497Z,68.10
2019-05-05T01:28:14.403Z,67.79
2019-05-05T01:30:44.613Z,67.75
2019-05-05T01:33:18.300Z,67.56
2019-05-05T01:35:45.847Z,66.94
2019-05-05T01:38:26.851Z,67.70
2019-05-05T01:41:14.633Z,66.55
2019-05-05T01:43:41.737Z,67.09
2019-05-05T01:46:09.363Z,66.55
2019-05-05T01:48:36.828Z,66.81
2019-05-05T01:51:05.006Z,67.58
2019-05-05T01:53:32.535Z,66.43
2019-05-05T01:56:00.472Z,66.68
2019-05-05T01:58:28.113Z,66.98
2019-05-05T02:00:55.539Z,66.29
2019-05-05T02:03:24.413Z,66.49
2019-05-05T02:05:52.051Z,67.28
2019-05-05T02:08:19.448Z,67.58
2019-05-05T02:10:46.880Z,66.67
2019-05-05T02:13:16.072Z,65.48
2019-05-05T02:15:44.615Z,65.11
2019-05-05T02:18:12.253Z,64.89
2019-05-05T02:21:05.193Z,65.21
2019-05-05T02:23:35.127Z,65.40
2019-05-05T02:26:04.621Z,64.74
2019-05-05T02:28:41.735Z,64.69
2019-05-05T02:31:18.927Z,63.87
2019-05-05T02:33:46.458Z,63.01
2019-05-05T02:36:15.978Z,63.00
2019-05-05T02:38:46.296Z,63.22
2019-05-05T02:41:15.472Z,63.16
2019-05-05T02:43:44.946Z,63.11
2019-05-05T02:46:35.612Z,63.88
2019-05-05T02:49:05.415Z,63.86
2019-05-05T02:51:35.600Z,63.93
2019-05-05T02:54:05.042Z,63.93
2019-05-05T02:56:43.642Z,64.11
2019-05-05T02:59:16.956Z,64.97
2019-05-05T03:02:00.908Z,66.69
2019-05-05T03:04:28.666Z,66.19
2019-05-05T03:06:57.629Z,65.36
2019-05-05T03:09:27.691Z,66.46
2019-05-05T03:11:58.238Z,67.44
2019-05-05T03:14:27.865Z,68.24
2019-05-05T03:16:56.024Z,68.87
2019-05-05T03:19:24.496Z,69.40
2019-05-05T03:21:54.547Z,69.34
2019-05-05T03:24:23.610Z,70.19
2019-05-05T03:26:53.677Z,69.76
2019-05-05T03:29:21.466Z,68.61
2019-05-05T03:31:49.937Z,68.77
2019-05-05T03:34:19.083Z,69.11
2019-05-05T03:36:47.017Z,67.84
2019-05-05T03:39:25.551Z,68.79
2019-05-05T03:42:10.709Z,68.83
2019-05-05T03:44:45.074Z,69.80
2019-05-05T03:47:13.963Z,70.34
2019-05-05T03:49:41.815Z,69.95
2019-05-05T03:52:09.387Z,70.27
2019-05-05T03:54:36.901Z,69.68
2019-05-05T03:57:07.835Z,69.71
2019-05-05T03:59:38.159Z,69.79
2019-05-05T04:02:15.355Z,69.23
2019-05-05T04:04:46.221Z,69.75
2019-05-05T04:07:14.043Z,70.16
2019-05-05T04:09:43.767Z,69.53
2019-05-05T04:12:13.732Z,69.51
2019-05-05T04:14:44.103Z,69.53
2019-05-05T04:17:40.056Z,69.44
2019-05-05T04:20:30.308Z,69.49
2019-05-05T04:22:58.285Z,69.39
2019-05-05T04:25:26.003Z,69.17
2019-05-05T04:27:53.898Z,69.18
2019-05-05T04:30:23.493Z,69.22
2019-05-05T04:32:50.960Z,68.20
2019-05-05T04:35:18.407Z,68.63
2019-05-05T04:37:45.850Z,67.09
2019-05-05T04:40:14.797Z,67.08
2019-05-05T04:42:44.094Z,67.73
2019-05-05T04:45:12.059Z,66.88
2019-05-05T04:47:43.591Z,67.71
2019-05-05T04:50:39.929Z,67.58
2019-05-05T04:53:13.449Z,67.93
2019-05-05T04:55:40.719Z,68.60
2019-05-05T04:58:08.151Z,68.92
2019-05-05T05:00:35.583Z,68.12
2019-05-05T05:03:34.828Z,67.62
2019-05-05T05:06:08.676Z,68.08
2019-05-05T05:08:36.102Z,67.70
2019-05-05T05:11:03.770Z,68.06
2019-05-05T05:13:31.191Z,67.65
2019-05-05T05:15:58.608Z,66.37
2019-05-05T05:18:26.125Z,66.42
2019-05-05T05:20:55.029Z,66.49
2019-05-05T05:23:24.482Z,65.55
2019-05-05T05:25:51.883Z,65.01
2019-05-05T05:28:19.390Z,65.71
2019-05-05T05:30:46.896Z,64.96
2019-05-05T05:33:15.035Z,64.50
2019-05-05T05:35:44.111Z,65.07
2019-05-05T05:38:13.851Z,63.85
2019-05-05T05:40:55.558Z,63.06
2019-05-05T05:43:30.204Z,64.00
2019-05-05T05:46:15.841Z,65.08
2019-05-05T05:49:01.439Z,66.80
2019-05-05T05:51:28.909Z,68.90
2019-05-05T05:53:56.313Z,67.43
2019-05-05T05:56:24.946Z,67.56
2019-05-05T05:58:54.273Z,69.65
2019-05-05T06:01:23.861Z,71.32
2019-05-05T06:03:51.175Z,72.73
2019-05-05T06:06:18.619Z,72.83
2019-05-05T06:08:46.183Z,73.09
2019-05-05T06:11:13.792Z,72.47
2019-05-05T06:13:41.224Z,74.01
2019-05-05T06:16:08.671Z,74.71
2019-05-05T06:18:36.637Z,75.25
2019-05-05T06:21:04.716Z,76.06
2019-05-05T06:23:34.228Z,76.76
2019-05-05T06:26:06.250Z,77.25
2019-05-05T06:28:30.863Z,75.86
2019-05-05T06:30:58.285Z,74.14
2019-05-05T06:33:25.768Z,74.81
2019-05-05T06:35:53.663Z,74.98
2019-05-05T06:38:21.255Z,75.39
2019-05-05T06:40:57.743Z,75.97
2019-05-05T06:43:35.355Z,73.87
2019-05-05T06:46:04.637Z,73.33
2019-05-05T06:48:34.220Z,73.70
2019-05-05T06:51:03.816Z,74.26
2019-05-05T06:53:30.691Z,73.41
2019-05-05T06:55:58.115Z,71.64
2019-05-05T06:58:25.556Z,72.57
2019-05-05T07:00:54.293Z,70.46
2019-05-05T07:03:24.120Z,69.99
2019-05-05T07:05:53.778Z,68.87
2019-05-05T07:08:20.636Z,70.13
2019-05-05T07:10:48.048Z,70.90
2019-05-05T07:13:15.795Z,70.43
2019-05-05T07:15:43.903Z,70.16
2019-05-05T07:18:11.601Z,68.61
2019-05-05T07:20:39.176Z,67.72
2019-05-05T07:23:06.645Z,64.88
2019-05-05T07:25:42.883Z,64.70
2019-05-05T07:28:04.253Z,65.55
2019-05-05T07:30:33.596Z,66.14
2019-05-05T07:33:01.123Z,65.85
2019-05-05T07:35:55.293Z,64.75
2019-05-05T07:38:13.905Z,65.42
2019-05-05T07:40:41.595Z,66.00
2019-05-05T07:43:09.044Z,66.11
2019-05-05T07:45:36.471Z,64.57
2019-05-05T07:48:04.820Z,62.47
2019-05-05T07:50:35.526Z,62.72
2019-05-05T07:53:12.389Z,62.55
2019-05-05T07:55:31.179Z,63.09
2019-05-05T07:57:58.618Z,62.80
2019-05-05T08:00:26.093Z,61.04
2019-05-05T08:02:54.421Z,59.52
2019-05-05T08:05:22.127Z,59.69
2019-05-05T08:07:49.492Z,60.34
2019-05-05T08:10:16.957Z,60.12
2019-05-05T08:12:44.393Z,61.32
2019-05-05T08:15:14.809Z,61.05
2019-05-05T08:18:14.151Z,60.38
2019-05-05T08:20:44.431Z,59.24
2019-05-05T08:23:31.737Z,58.83
2019-05-05T08:26:01.101Z,59.28
2019-05-05T08:28:34.238Z,59.83
2019-05-05T08:31:21.164Z,60.08
2019-05-05T08:33:48.562Z,58.12
2019-05-05T08:36:16.126Z,57.74
2019-05-05T08:38:44.126Z,57.74
2019-05-05T08:41:13.744Z,57.57
2019-05-05T08:43:41.090Z,57.13
2019-05-05T08:46:08.549Z,58.13
2019-05-05T08:48:35.944Z,58.48
2019-05-05T08:51:04.837Z,57.91
2019-05-05T08:53:44.137Z,56.45
2019-05-05T08:56:03.946Z,55.00
2019-05-05T08:58:31.284Z,54.16
2019-05-05T09:00:58.697Z,53.61
2019-05-05T09:03:26.160Z,54.03
2019-05-05T09:05:54.218Z,53.79
2019-05-05T09:08:24.005Z,53.51
2019-05-05T09:10:53.033Z,52.99
2019-05-05T09:13:20.666Z,52.97
2019-05-05T09:15:48.103Z,53.82
2019-05-05T09:18:15.599Z,54.19
2019-05-05T09:20:44.566Z,53.22
2019-05-05T09:23:14.564Z,53.15
2019-05-05T09:25:49.588Z,53.01
2019-05-05T09:28:44.476Z,52.43
2019-05-05T09:31:11.833Z,52.44
2019-05-05T09:33:39.259Z,52.89
2019-05-05T09:36:06.827Z,53.10
2019-05-05T09:38:34.864Z,53.96
2019-05-05T09:41:03.833Z,53.55
2019-05-05T09:43:31.456Z,54.37
2019-05-05T09:45:58.879Z,55.33
2019-05-05T09:48:26.592Z,55.77
2019-05-05T09:50:54.219Z,55.49
2019-05-05T09:53:23.633Z,55.70
2019-05-05T09:55:51.079Z,56.65
2019-05-05T09:58:18.507Z,54.28
2019-05-05T10:00:46.489Z,53.50
2019-05-05T10:03:14.492Z,52.61
2019-05-05T10:05:42.274Z,50.51
2019-05-05T10:08:09.651Z,49.20
2019-05-05T10:10:37.142Z,48.87
2019-05-05T10:13:04.602Z,49.57
2019-05-05T10:15:32.055Z,50.21
2019-05-05T10:17:59.921Z,51.17
2019-05-05T10:20:27.425Z,51.47
2019-05-05T10:22:54.907Z,52.26
2019-05-05T10:25:38.671Z,51.34
2019-05-05T10:28:06.188Z,52.30
2019-05-05T10:30:33.889Z,53.50
2019-05-05T10:33:03.609Z,54.90
2019-05-05T10:35:30.752Z,54.29
2019-05-05T10:37:58.207Z,54.26
2019-05-05T10:40:30.094Z,53.98
2019-05-05T10:42:57.543Z,53.90
2019-05-05T10:45:25.113Z,54.30
2019-05-05T10:47:52.732Z,53.20
2019-05-05T10:50:20.222Z,53.19
2019-05-05T10:52:47.665Z,51.51
2019-05-05T10:55:16.580Z,50.28
2019-05-05T10:57:43.973Z,49.40
2019-05-05T11:00:15.356Z,49.44
2019-05-05T11:02:41.955Z,49.67
2019-05-05T11:05:09.822Z,49.34
2019-05-05T11:07:37.559Z,50.16
2019-05-05T11:10:06.507Z,50.21
2019-05-05T11:12:33.894Z,50.73
2019-05-05T11:15:03.941Z,50.77
2019-05-05T11:17:31.077Z,50.62
2019-05-05T11:19:58.906Z,50.71
2019-05-05T11:22:26.477Z,51.52
2019-05-05T11:25:00.534Z,52.03
2019-05-05T11:27:24.104Z,51.71
2019-05-05T11:30:20.513Z,52.11
2019-05-05T11:33:06.511Z,51.65
2019-05-05T11:35:53.884Z,50.92
2019-05-05T11:38:21.407Z,50.24
2019-05-05T11:40:48.945Z,49.53
2019-05-05T11:43:16.506Z,49.09
2019-05-05T11:45:44.051Z,49.58
2019-05-05T11:48:11.459Z,50.25
2019-05-05T11:50:38.908Z,52.95
2019-05-05T11:53:06.313Z,50.35
2019-05-05T11:55:33.799Z,48.29
2019-05-05T11:58:01.171Z,49.18
2019-05-05T12:00:28.651Z,49.22
2019-05-05T12:02:56.114Z,47.41
2019-05-05T12:05:24.382Z,47.27
2019-05-05T12:07:54.028Z,47.64
2019-05-05T12:10:39.589Z,47.20
2019-05-05T12:13:08.999Z,47.34
2019-05-05T12:15:36.454Z,47.60
2019-05-05T12:18:04.369Z,47.15
2019-05-05T12:20:34.735Z,47.35
2019-05-05T12:23:04.477Z,47.26
2019-05-05T12:25:49.835Z,46.95
2019-05-05T12:28:30.607Z,46.53
2019-05-05T12:31:00.011Z,45.73
2019-05-05T12:33:27.490Z,45.90
2019-05-05T12:35:54.836Z,46.80
2019-05-05T12:38:24.107Z,46.60
2019-05-05T12:40:53.506Z,47.46
2019-05-05T12:43:21.019Z,48.50
2019-05-05T12:45:53.979Z,47.91
2019-05-05T12:48:29.512Z,48.48
2019-05-05T12:50:57.075Z,48.01
2019-05-05T12:53:24.637Z,47.58
2019-05-05T12:55:53.822Z,47.35
2019-05-05T12:58:21.368Z,47.63
2019-05-05T13:01:17.375Z,46.93
2019-05-05T13:03:44.975Z,47.53
2019-05-05T13:06:14.596Z,47.18
2019-05-05T13:08:42.044Z,47.36
2019-05-05T13:11:09.577Z,49.00
2019-05-05T13:13:37.161Z,48.80
2019-05-05T13:16:04.545Z,50.26
2019-05-05T13:18:33.862Z,52.11
2019-05-05T13:21:24.006Z,52.46
2019-05-05T13:24:04.851Z,52.98
2019-05-05T13:26:53.678Z,55.20
2019-05-05T13:29:21.249Z,56.23
2019-05-05T13:31:48.994Z,52.75
2019-05-05T13:34:16.466Z,51.70
2019-05-05T13:36:44.242Z,51.93
2019-05-05T13:39:14.209Z,53.07
2019-05-05T13:41:41.373Z,53.65
2019-05-05T13:44:14.963Z,54.16
2019-05-05T13:46:44.267Z,55.67
2019-05-05T13:49:26.140Z,56.13
2019-05-05T13:51:54.124Z,54.51
2019-05-05T13:54:21.734Z,53.48
2019-05-05T13:56:49.191Z,54.76
2019-05-05T13:59:16.619Z,53.11
2019-05-05T14:01:44.825Z,55.76
2019-05-05T14:04:12.405Z,57.63
2019-05-05T14:06:39.845Z,57.35
2019-05-05T14:09:07.690Z,59.16
2019-05-05T14:11:35.142Z,61.12
2019-05-05T14:14:02.558Z,62.20
2019-05-05T14:16:29.975Z,62.35
2019-05-05T14:18:57.452Z,61.99
2019-05-05T14:21:24.920Z,62.79
2019-05-05T14:24:03.672Z,61.21
2019-05-05T14:26:32.367Z,60.66
2019-05-05T14:29:00.230Z,61.06
2019-05-05T14:31:33.802Z,62.69
2019-05-05T14:34:04.444Z,63.03
2019-05-05T14:36:46.722Z,62.72
2019-05-05T14:39:15.286Z,64.38
2019-05-05T14:41:44.571Z,65.73
2019-05-05T14:44:13.454Z,67.29
2019-05-05T14:46:40.933Z,68.62
2019-05-05T14:49:08.510Z,70.08
2019-05-05T14:51:35.967Z,71.37
2019-05-05T14:54:04.622Z,71.81
2019-05-05T14:56:36.459Z,71.42
2019-05-05T14:59:03.579Z,71.21
2019-05-05T15:01:30.846Z,68.53
2019-05-05T15:03:58.325Z,67.01
2019-05-05T15:06:39.820Z,68.66
2019-05-05T15:09:15.254Z,69.38
2019-05-05T15:12:03.755Z,72.28
2019-05-05T15:14:31.301Z,72.94
2019-05-05T15:16:58.694Z,72.62
2019-05-05T15:19:26.169Z,73.26
2019-05-05T15:21:53.718Z,72.89
2019-05-05T15:24:21.213Z,73.07
2019-05-05T15:26:52.040Z,72.20
2019-05-05T15:29:17.994Z,71.83
2019-05-05T15:31:45.350Z,72.65
2019-05-05T15:34:12.782Z,72.98
2019-05-05T15:36:40.229Z,73.50
2019-05-05T15:39:08.386Z,73.12
2019-05-05T15:41:35.874Z,73.30
2019-05-05T15:44:03.773Z,73.23
2019-05-05T15:46:33.579Z,74.36
2019-05-05T15:49:00.793Z,75.59
2019-05-05T15:51:28.362Z,74.94
2019-05-05T15:53:55.798Z,75.48
2019-05-05T15:56:24.462Z,75.53
2019-05-05T15:58:51.909Z,75.74
2019-05-05T16:01:19.373Z,75.16
2019-05-05T16:03:46.812Z,73.91
2019-05-05T16:06:14.359Z,71.65
2019-05-05T16:08:41.861Z,71.06
2019-05-05T16:11:09.325Z,72.43
2019-05-05T16:13:37.027Z,71.74
2019-05-05T16:16:34.148Z,70.72
2019-05-05T16:19:29.882Z,72.25
2019-05-05T16:22:14.546Z,72.06
2019-05-05T16:24:44.644Z,71.79
2019-05-05T16:27:21.711Z,71.04
2019-05-05T16:29:41.654Z,70.65
2019-05-05T16:32:19.544Z,70.24
2019-05-05T16:34:38.694Z,70.52
2019-05-05T16:37:06.135Z,70.26
2019-05-05T16:39:33.699Z,69.74
2019-05-05T16:42:01.335Z,68.62
2019-05-05T16:44:28.751Z,67.93
2019-05-05T16:46:57.425Z,67.64
2019-05-05T16:49:25.066Z,67.58
2019-05-05T16:52:14.621Z,67.55
2019-05-05T16:55:05.561Z,68.25
2019-05-05T16:57:34.763Z,68.80
2019-05-05T17:00:02.656Z,69.77
2019-05-05T17:02:30.003Z,69.89
2019-05-05T17:04:57.465Z,70.69
2019-05-05T17:07:24.900Z,71.39
2019-05-05T17:09:52.333Z,71.77
2019-05-05T17:12:19.696Z,72.13
2019-05-05T17:15:18.924Z,72.51
2019-05-05T17:17:54.034Z,71.94
2019-05-05T17:20:24.587Z,72.02
2019-05-05T17:22:56.051Z,71.98
2019-05-05T17:25:24.604Z,71.64
2019-05-05T17:27:54.416Z,71.35
2019-05-05T17:30:24.516Z,70.99
2019-05-05T17:32:52.094Z,70.48
2019-05-05T17:35:19.534Z,70.98
2019-05-05T17:37:46.965Z,71.05
2019-05-05T17:40:30.339Z,70.92
2019-05-05T17:43:24.436Z,71.53
2019-05-05T17:45:58.263Z,72.74
2019-05-05T17:48:35.582Z,73.32
2019-05-05T17:51:23.483Z,73.03
2019-05-05T17:54:26.285Z,77.22
2019-05-05T17:56:55.058Z,78.87
2019-05-05T17:59:23.682Z,80.07
2019-05-05T18:01:51.243Z,82.46
2019-05-05T18:04:18.614Z,85.24
2019-05-05T18:06:54.801Z,85.71
2019-05-05T18:09:43.795Z,87.49
2019-05-05T18:12:45.522Z,88.40
2019-05-05T18:15:34.133Z,86.90
2019-05-05T18:18:01.725Z,86.60
2019-05-05T18:20:29.212Z,86.96
2019-05-05T18:22:57.243Z,85.89
2019-05-05T18:25:24.652Z,87.65
2019-05-05T18:27:52.099Z,90.75
2019-05-05T18:30:19.550Z,91.25
2019-05-05T18:32:46.942Z,90.50
2019-05-05T18:35:14.360Z,92.88
2019-05-05T18:37:43.512Z,93.76
2019-05-05T18:40:11.245Z,91.60
2019-05-05T18:42:38.661Z,91.35
2019-05-05T18:45:09.772Z,92.52
2019-05-05T18:47:37.205Z,93.66
2019-05-05T18:50:05.113Z,95.30
2019-05-05T18:52:34.512Z,97.20
2019-05-05T18:55:02.009Z,97.60
2019-05-05T18:57:29.430Z,97.68
2019-05-05T18:59:56.911Z,98.43
2019-05-05T19:02:49.900Z,98.70
2019-05-05T19:05:36.959Z,100.00
2019-05-05T19:08:10.116Z,99.89
2019-05-05T19:10:37.566Z,98.24
2019-05-05T19:13:04.988Z,97.59
2019-05-05T19:15:32.520Z,97.16
2019-05-05T19:17:59.969Z,97.81
2019-05-05T19:20:44.444Z,97.52
2019-05-05T19:23:12.116Z,97.78
2019-05-05T19:25:39.582Z,97.73
2019-05-05T19:28:06.986Z,98.87
2019-05-05T19:30:36.166Z,100.00
2019-05-05T19:33:04.551Z,99.92
2019-05-05T19:35:43.577Z,95.74
2019-05-05T19:38:01.494Z,96.95
2019-05-05T19:40:28.932Z,95.93
2019-05-05T19:42:56.384Z,97.99
2019-05-05T19:45:24.099Z,96.97
2019-05-05T19:47:53.184Z,96.10
2019-05-05T19:50:28.185Z,93.13
2019-05-05T19:52:55.599Z,95.12
2019-05-05T19:55:23.014Z,95.26
2019-05-05T19:57:50.556Z,94.03
2019-05-05T20:00:18.291Z,92.48
2019-05-05T20:02:45.714Z,95.58
2019-05-05T20:05:13.986Z,95.58
2019-05-05T20:07:43.744Z,95.62
2019-05-05T20:10:10.798Z,95.81
2019-05-05T20:12:38.250Z,93.68
2019-05-05T20:15:08.182Z,92.79
2019-05-05T20:17:36.745Z,93.83
2019-05-05T20:20:05.545Z,92.13
2019-05-05T20:22:34.766Z,93.45
2019-05-05T20:25:04.374Z,95.79
2019-05-05T20:27:34.219Z,93.72
2019-05-05T20:30:01.428Z,95.18
2019-05-05T20:32:48.355Z,94.15
2019-05-05T20:35:33.784Z,94.75
2019-05-05T20:38:08.490Z,94.45
2019-05-05T20:40:41.257Z,93.58
2019-05-05T20:43:08.741Z,95.99
2019-05-05T20:45:36.234Z,97.16
2019-05-05T20:48:04.467Z,94.95
2019-05-05T20:50:34.192Z,94.44
2019-05-05T20:53:01.654Z,92.52
2019-05-05T20:55:29.044Z,93.31
2019-05-05T20:57:56.604Z,93.75
2019-05-05T21:00:24.196Z,95.06
2019-05-05T21:02:53.663Z,96.04
2019-05-05T21:05:20.986Z,96.66
2019-05-05T21:07:48.384Z,97.02
2019-05-05T21:10:16.014Z,97.52
2019-05-05T21:12:45.569Z,97.42
2019-05-05T21:15:13.213Z,98.10
2019-05-05T21:17:40.877Z,98.32
2019-05-05T21:20:08.586Z,98.09
2019-05-05T21:22:45.410Z,97.35
2019-05-05T21:25:25.083Z,97.12
2019-05-05T21:27:52.627Z,94.39
2019-05-05T21:30:20.061Z,93.50
2019-05-05T21:32:47.478Z,93.26
2019-05-05T21:35:14.902Z,94.01
2019-05-05T21:37:42.315Z,94.59
2019-05-05T21:40:10.373Z,94.36
2019-05-05T21:42:37.809Z,94.99
2019-05-05T21:45:05.227Z,95.97
2019-05-05T21:47:34.516Z,97.72
2019-05-05T21:50:03.731Z,99.18
2019-05-05T21:52:40.312Z,100.00
2019-05-05T21:55:36.661Z,100.00
2019-05-05T21:58:08.937Z,99.57
2019-05-05T22:01:04.189Z,98.02
2019-05-05T22:03:34.839Z,95.85
2019-05-05T22:06:03.749Z,92.55
2019-05-05T22:08:33.486Z,90.21
2019-05-05T22:11:00.749Z,88.94
2019-05-05T22:13:28.195Z,87.45
2019-05-05T22:15:55.648Z,86.88
2019-05-05T22:18:23.021Z,86.33
2019-05-05T22:21:04.287Z,85.44
2019-05-05T22:23:34.038Z,84.62
2019-05-05T22:26:01.259Z,83.49
2019-05-05T22:28:28.644Z,84.24
2019-05-05T22:30:56.110Z,83.98
2019-05-05T22:33:24.679Z,83.66
2019-05-05T22:35:52.352Z,85.77
2019-05-05T22:38:19.775Z,86.85
2019-05-05T22:40:47.314Z,85.65
2019-05-05T22:43:14.768Z,84.98
2019-05-05T22:45:44.865Z,85.95
2019-05-05T22:48:14.219Z,84.45
2019-05-05T22:50:43.516Z,84.58
2019-05-05T22:53:10.582Z,83.59
2019-05-05T22:55:38.126Z,83.56
2019-05-05T22:58:05.559Z,83.74
2019-05-05T23:00:34.805Z,84.02
2019-05-05T23:03:09.565Z,85.89
2019-05-05T23:05:44.945Z,86.13
2019-05-05T23:08:13.611Z,84.93
2019-05-05T23:10:41.190Z,82.82
2019-05-05T23:13:08.566Z,81.51
2019-05-05T23:15:38.524Z,80.69
2019-05-05T23:18:31.498Z,80.74
2019-05-05T23:21:31.262Z,80.78
2019-05-05T23:24:30.170Z,82.13
2019-05-05T23:26:57.609Z,81.87
2019-05-05T23:29:26.648Z,80.47
2019-05-05T23:31:54.335Z,79.95
2019-05-05T23:34:21.765Z,79.40
2019-05-05T23:36:49.211Z,79.69
2019-05-05T23:39:16.656Z,79.09
2019-05-05T23:41:44.095Z,79.80
2019-05-05T23:44:11.516Z,79.43
2019-05-05T23:46:38.954Z,80.20
2019-05-05T23:49:06.335Z,81.50
2019-05-05T23:51:34.782Z,81.48
2019-05-05T23:54:04.226Z,80.58
2019-05-05T23:56:31.784Z,81.21
2019-05-05T23:58:59.345Z,81.73
